Edina, Minnesota
Current Conditions -  °F | °C
As of 5:53 AM on Sunday 25 Jan 2015 (Local Time) from KMSP Reporting Station
Overcast Overcast  
Wind Chill: 12°   Ceiling: 2000
Heat Index: 25°   Visibility: 10mi
Dew Point: 17°   Wind: 17mph
Humidity: 72%   Direction: 10°N
Pressure: 29.88"   Gusts: 26mph
Location:  44.91°N, 93.35°W
Report Text: KMSP 251153Z 01015G23KT 10SM OVC020 M04/M08 A2988 RMK AO2 SLP127 4/001 60003 70003 T10391083 10017 21039 53034
Loading
Personal Weather Stations






























Interactive Weather Map New forecast layout! Learn more

10-Day Weather Forecast

Advertisements
Track Severe Weather on mobile